Time;durP1;ratioP1;P1;durP2;ratioP2;P2;SDS_P1;SDS_P2;PMS_P1;PMS_P2;Temp;Humidity;BMP_temperature;BMP_pressure;BME280_temperature;BME280_humidity;BME280_pressure;Samples;Min_cycle;Max_cycle;Signal;HPM_P1;HPM_P2
2020/12/19 00:00:01;;;;;;;12.73;9.35;;;;;;;4.10;81.17;96888.97;4901329;29;20052;-73
2020/12/19 00:02:28;;;;;;;14.02;10.00;;;;;;;4.09;81.17;96889.94;4901189;29;20047;-72
2020/12/19 00:04:54;;;;;;;12.57;8.82;;;;;;;4.06;81.11;96888.50;4900910;29;20063;-73
2020/12/19 00:07:20;;;;;;;15.18;9.05;;;;;;;4.04;81.08;96887.03;4884109;29;20445;-73
2020/12/19 00:09:46;;;;;;;12.55;8.82;;;;;;;4.03;81.29;96891.44;4883144;29;20040;-73
2020/12/19 00:12:12;;;;;;;12.32;8.93;;;;;;;4.00;81.01;96888.34;4900756;29;20047;-73
2020/12/19 00:14:38;;;;;;;11.52;9.00;;;;;;;3.96;81.01;96887.06;4899511;29;20064;-73
2020/12/19 00:17:05;;;;;;;11.98;8.57;;;;;;;3.93;80.72;96880.41;4899504;29;20052;-73
2020/12/19 00:19:31;;;;;;;13.13;8.63;;;;;;;3.88;80.60;96874.91;4899456;29;20040;-73
2020/12/19 00:21:57;;;;;;;14.98;8.95;;;;;;;3.83;80.70;96880.59;4900327;29;20048;-73
2020/12/19 00:24:23;;;;;;;12.57;8.45;;;;;;;3.80;80.77;96872.31;4900952;29;20045;-73
2020/12/19 00:26:50;;;;;;;12.88;9.15;;;;;;;3.77;80.94;96873.47;4898417;29;20044;-73
2020/12/19 00:29:16;;;;;;;13.00;8.68;;;;;;;3.75;80.91;96865.03;4900603;29;20040;-73
2020/12/19 00:31:42;;;;;;;14.52;9.43;;;;;;;3.73;80.83;96874.75;4899502;29;20048;-73
2020/12/19 00:34:10;;;;;;;13.45;9.27;;;;;;;3.72;80.74;96865.38;4899523;29;20044;-73
2020/12/19 00:36:36;;;;;;;11.75;8.73;;;;;;;3.68;80.63;96871.06;4900485;29;20043;-73
2020/12/19 00:39:05;;;;;;;14.02;9.15;;;;;;;3.64;80.42;96867.97;4898917;29;20036;-73
2020/12/19 00:41:32;;;;;;;12.15;8.98;;;;;;;3.61;80.58;96868.28;4900245;29;20043;-73
2020/12/19 00:43:58;;;;;;;13.20;8.80;;;;;;;3.59;80.57;96865.88;4899532;29;20485;-73
2020/12/19 00:46:24;;;;;;;11.25;8.00;;;;;;;3.59;80.69;96862.44;4900087;29;20473;-73
2020/12/19 00:48:51;;;;;;;11.13;8.18;;;;;;;3.57;80.80;96857.44;4900416;29;20048;-73
2020/12/19 00:51:20;;;;;;;10.82;7.85;;;;;;;3.58;80.64;96855.66;4900082;29;20040;-73
2020/12/19 00:53:48;;;;;;;12.30;8.02;;;;;;;3.55;80.68;96851.63;4898555;29;20075;-73
2020/12/19 00:56:24;;;;;;;10.32;7.28;;;;;;;3.52;80.43;96844.16;4900090;29;20512;-73
2020/12/19 00:58:51;;;;;;;9.93;6.78;;;;;;;3.52;80.66;96849.34;4900119;29;20045;-73
2020/12/19 01:01:19;;;;;;;12.00;7.75;;;;;;;3.53;80.75;96844.94;4898026;29;20477;-73
2020/12/19 01:03:46;;;;;;;10.25;7.30;;;;;;;3.54;80.78;96856.97;4900095;29;20048;-73
2020/12/19 01:06:18;;;;;;;11.63;7.25;;;;;;;3.56;80.80;96847.22;4901060;29;20032;-74
2020/12/19 01:08:46;;;;;;;10.07;7.60;;;;;;;3.59;80.89;96845.13;4899294;29;20063;-73
2020/12/19 01:11:14;;;;;;;10.55;7.55;;;;;;;3.60;80.91;96838.16;4899892;29;20466;-73
2020/12/19 01:13:40;;;;;;;11.57;7.65;;;;;;;3.60;81.04;96851.13;4898641;29;20047;-73
2020/12/19 01:16:08;;;;;;;9.25;6.93;;;;;;;3.60;80.62;96851.94;4899737;29;20044;-73
2020/12/19 01:18:35;;;;;;;12.85;8.13;;;;;;;3.58;80.82;96848.69;4898844;29;20040;-73
2020/12/19 01:21:02;;;;;;;11.98;6.97;;;;;;;3.58;80.73;96843.50;4899294;29;20049;-73
2020/12/19 01:23:28;;;;;;;12.55;7.15;;;;;;;3.56;80.70;96837.66;4899981;29;20047;-73
2020/12/19 01:25:54;;;;;;;10.88;7.18;;;;;;;3.57;80.81;96841.06;4892303;29;20037;-73
2020/12/19 01:28:20;;;;;;;13.85;7.30;;;;;;;3.54;80.65;96842.19;4899347;29;20048;-73
2020/12/19 01:30:46;;;;;;;13.18;8.25;;;;;;;3.54;80.59;96842.19;4882494;29;20118;-73
2020/12/19 01:33:12;;;;;;;13.18;8.23;;;;;;;3.50;80.70;96846.09;4898915;29;20048;-73
2020/12/19 01:35:39;;;;;;;11.30;7.75;;;;;;;3.49;80.66;96846.28;4881247;29;20425;-73
2020/12/19 01:38:05;;;;;;;9.40;7.38;;;;;;;3.49;80.94;96847.09;4899344;29;20044;-73
2020/12/19 01:40:31;;;;;;;13.32;7.30;;;;;;;3.49;81.00;96841.09;4899368;29;20048;-73
2020/12/19 01:42:57;;;;;;;10.25;7.03;;;;;;;3.47;81.05;96838.66;4882455;29;20041;-73
2020/12/19 01:45:23;;;;;;;14.07;8.18;;;;;;;3.48;80.92;96835.06;4882279;29;20041;-73
2020/12/19 01:47:54;;;;;;;13.02;8.30;;;;;;;3.44;81.06;96834.63;4888855;29;20041;-74
2020/12/19 01:50:20;;;;;;;14.85;8.32;;;;;;;3.38;80.80;96835.25;4899613;29;20052;-73
2020/12/19 01:52:47;;;;;;;11.77;8.10;;;;;;;3.40;80.99;96828.13;4898369;29;20044;-73
2020/12/19 01:55:14;;;;;;;10.77;7.80;;;;;;;3.44;81.21;96833.78;4886322;29;20053;-73
2020/12/19 01:57:41;;;;;;;11.98;7.60;;;;;;;3.45;81.16;96840.59;4898867;29;20048;-72
2020/12/19 02:00:07;;;;;;;11.93;8.30;;;;;;;3.45;81.09;96830.22;4898607;29;20044;-73
2020/12/19 02:02:33;;;;;;;12.15;8.48;;;;;;;3.44;80.89;96832.03;4898644;29;20049;-73
2020/12/19 02:05:00;;;;;;;10.57;7.70;;;;;;;3.43;80.78;96838.16;4899035;29;20052;-73
2020/12/19 02:07:26;;;;;;;12.52;7.53;;;;;;;3.40;80.92;96835.91;4898624;29;20040;-73
2020/12/19 02:09:53;;;;;;;10.05;7.90;;;;;;;3.39;81.02;96829.09;4897606;29;20492;-73
2020/12/19 02:12:19;;;;;;;10.25;7.38;;;;;;;3.39;81.01;96830.88;4897999;29;20401;-73
2020/12/19 02:14:46;;;;;;;12.80;7.68;;;;;;;3.38;80.84;96824.06;4898775;29;20048;-73
2020/12/19 02:17:14;;;;;;;11.20;7.93;;;;;;;3.38;80.84;96821.47;4898610;29;20044;-73
2020/12/19 02:19:40;;;;;;;14.05;8.07;;;;;;;3.34;80.69;96823.59;4897944;29;20045;-73
2020/12/19 02:22:08;;;;;;;12.40;7.75;;;;;;;3.34;80.78;96821.00;4897997;29;20045;-73
2020/12/19 02:24:34;;;;;;;12.70;7.63;;;;;;;3.32;80.79;96822.94;4898439;29;20045;-73
2020/12/19 02:27:00;;;;;;;11.60;8.10;;;;;;;3.31;80.92;96816.13;4897166;29;20040;-73
2020/12/19 02:29:29;;;;;;;11.05;7.75;;;;;;;3.31;80.88;96815.31;4898571;29;20389;-73
2020/12/19 02:31:57;;;;;;;10.32;7.50;;;;;;;3.31;80.78;96810.94;4898652;29;20044;-73
2020/12/19 02:34:24;;;;;;;12.25;7.85;;;;;;;3.29;80.76;96809.50;4898639;29;20053;-73
2020/12/19 02:36:50;;;;;;;12.40;7.93;;;;;;;3.25;80.60;96809.84;4898537;29;20043;-73
2020/12/19 02:39:16;;;;;;;11.43;7.82;;;;;;;3.22;80.70;96804.16;4898386;29;20037;-73
2020/12/19 02:41:46;;;;;;;12.40;8.05;;;;;;;3.21;80.73;96805.13;4896944;29;20229;-73
2020/12/19 02:44:15;;;;;;;11.15;7.82;;;;;;;3.19;80.53;96796.69;4898064;29;20044;-73
2020/12/19 02:46:42;;;;;;;10.40;7.90;;;;;;;3.17;80.76;96803.81;4898421;29;20498;-73
2020/12/19 02:49:08;;;;;;;12.20;8.15;;;;;;;3.14;80.71;96797.19;4897998;29;20041;-73
2020/12/19 02:51:34;;;;;;;9.73;7.70;;;;;;;3.12;80.75;96800.91;4897212;29;20493;-73
2020/12/19 02:54:00;;;;;;;10.82;7.43;;;;;;;3.09;80.53;96803.81;4898224;29;20101;-73
2020/12/19 02:56:27;;;;;;;13.60;7.47;;;;;;;3.05;80.37;96800.75;4897771;29;20413;-73
2020/12/19 02:58:53;;;;;;;10.07;6.97;;;;;;;3.03;80.51;96810.47;4896730;29;20056;-73
2020/12/19 03:01:19;;;;;;;9.65;7.30;;;;;;;3.00;80.65;96809.03;4897136;29;20060;-73
2020/12/19 03:03:45;;;;;;;11.98;7.70;;;;;;;3.00;80.40;96809.03;4898069;29;20040;-73
2020/12/19 03:06:12;;;;;;;13.85;7.47;;;;;;;2.98;80.45;96808.38;4897908;29;20497;-73
2020/12/19 03:08:38;;;;;;;11.70;7.75;;;;;;;2.96;80.65;96812.06;4897728;29;20044;-73
2020/12/19 03:11:04;;;;;;;11.30;7.28;;;;;;;2.92;80.44;96808.19;4898101;29;20044;-72
2020/12/19 03:13:30;;;;;;;11.35;7.85;;;;;;;2.87;80.45;96800.88;4897555;29;20402;-73
2020/12/19 03:15:56;;;;;;;14.52;8.05;;;;;;;2.84;80.72;96796.03;4897643;29;20052;-73
2020/12/19 03:18:22;;;;;;;9.75;7.85;;;;;;;2.83;80.57;96797.84;4897268;29;20064;-73
2020/12/19 03:20:50;;;;;;;10.75;8.23;;;;;;;2.83;80.53;96799.59;4896541;29;20055;-73
2020/12/19 03:23:16;;;;;;;14.25;8.07;;;;;;;2.84;80.65;96801.22;4882839;29;20508;-73
2020/12/19 03:25:42;;;;;;;11.43;8.50;;;;;;;2.82;80.84;96796.19;4884660;29;20036;-73
2020/12/19 03:28:08;;;;;;;14.48;7.80;;;;;;;2.82;80.83;96796.19;4884772;29;20485;-73
2020/12/19 03:30:35;;;;;;;13.38;8.18;;;;;;;2.83;80.59;96794.41;4901524;29;20064;-73
2020/12/19 03:33:01;;;;;;;12.68;8.20;;;;;;;2.85;80.82;96787.28;4901782;29;20057;-73
2020/12/19 03:35:27;;;;;;;11.68;8.25;;;;;;;2.84;80.71;96785.69;4884886;29;20390;-73
2020/12/19 03:37:53;;;;;;;14.50;8.15;;;;;;;2.83;80.68;96789.22;4884443;29;20049;-73
2020/12/19 03:40:20;;;;;;;11.25;7.35;;;;;;;2.80;80.53;96792.16;4902901;29;20118;-73
2020/12/19 03:42:46;;;;;;;9.20;7.03;;;;;;;2.79;80.69;96783.59;4902245;29;20135;-73
2020/12/19 03:45:12;;;;;;;11.18;7.50;;;;;;;2.80;80.78;96781.78;4901549;29;20032;-73
2020/12/19 03:47:38;;;;;;;10.90;8.75;;;;;;;2.80;80.65;96779.22;4900174;29;20409;-73
2020/12/19 03:50:05;;;;;;;10.65;7.38;;;;;;;2.79;80.53;96780.16;4901377;29;20505;-73
2020/12/19 03:52:31;;;;;;;9.75;6.88;;;;;;;2.78;80.73;96775.97;4899317;29;20060;-73
2020/12/19 03:54:57;;;;;;;11.32;7.35;;;;;;;2.74;80.54;96759.94;4901288;29;20068;-73
2020/12/19 03:57:23;;;;;;;10.88;7.68;;;;;;;2.74;80.53;96766.91;4901348;29;20405;-73
2020/12/19 03:59:49;;;;;;;11.90;7.07;;;;;;;2.75;80.75;96765.91;4901152;29;20154;-73
2020/12/19 04:02:15;;;;;;;14.90;7.78;;;;;;;2.76;80.90;96763.16;4901041;29;20433;-73
2020/12/19 04:04:42;;;;;;;13.07;7.78;;;;;;;2.77;81.11;96766.56;4901230;29;20044;-72
2020/12/19 04:07:09;;;;;;;13.45;8.27;;;;;;;2.79;81.11;96764.63;4900018;29;20052;-73
2020/12/19 04:09:35;;;;;;;12.05;8.25;;;;;;;2.79;81.08;96765.44;4900106;29;20064;-73
2020/12/19 04:12:02;;;;;;;11.15;7.32;;;;;;;2.78;80.70;96761.22;4900800;29;20040;-73
2020/12/19 04:14:37;;;;;;;10.70;7.53;;;;;;;2.75;80.56;96765.91;4901352;29;20462;-72
2020/12/19 04:17:05;;;;;;;12.15;7.90;;;;;;;2.68;80.40;96757.97;4900374;29;20056;-73
2020/12/19 04:19:32;;;;;;;10.77;7.07;;;;;;;2.66;80.38;96756.53;4900420;29;20044;-73
2020/12/19 04:22:01;;;;;;;14.50;7.80;;;;;;;2.65;80.84;96758.31;4900243;29;20067;-73
2020/12/19 04:24:27;;;;;;;15.93;9.20;;;;;;;2.62;80.76;96753.44;4900501;29;20405;-72
2020/12/19 04:26:53;;;;;;;12.57;8.05;;;;;;;2.61;80.61;96764.78;4899996;29;20044;-73
2020/12/19 04:29:19;;;;;;;11.23;7.53;;;;;;;2.60;80.64;96757.97;4900628;29;20041;-72
2020/12/19 04:31:45;;;;;;;11.15;7.88;;;;;;;2.58;80.50;96758.16;4900259;29;20059;-73
2020/12/19 04:34:11;;;;;;;11.75;7.60;;;;;;;2.54;80.48;96756.00;4899407;29;20056;-73
2020/12/19 04:36:38;;;;;;;10.80;7.90;;;;;;;2.53;80.42;96751.81;4900341;29;20045;-73
2020/12/19 04:39:04;;;;;;;9.65;7.50;;;;;;;2.53;80.63;96755.22;4883658;29;20469;-73
2020/12/19 04:41:32;;;;;;;10.50;7.30;;;;;;;2.52;80.66;96751.03;4899899;29;20060;-73
2020/12/19 04:44:04;;;;;;;11.98;7.78;;;;;;;2.52;80.67;96743.25;4899140;29;20056;-73
2020/12/19 04:46:31;;;;;;;11.60;7.47;;;;;;;2.53;80.59;96744.84;4883445;29;20072;-73
2020/12/19 04:48:59;;;;;;;11.70;7.70;;;;;;;2.52;80.42;96745.00;4900054;29;20036;-73
2020/12/19 04:51:28;;;;;;;11.95;8.55;;;;;;;2.50;80.31;96747.78;4899300;29;20676;-73
2020/12/19 04:53:54;;;;;;;10.85;8.15;;;;;;;2.50;80.27;96754.72;4899495;29;20057;-73
2020/12/19 04:56:23;;;;;;;13.15;8.60;;;;;;;2.49;80.24;96753.91;4898688;29;20040;-73
2020/12/19 04:58:52;;;;;;;12.80;8.43;;;;;;;2.45;80.36;96755.19;4899898;29;20051;-73
2020/12/19 05:01:19;;;;;;;12.45;8.13;;;;;;;2.42;80.49;96753.75;4899835;29;20047;-73
2020/12/19 05:03:49;;;;;;;11.65;8.07;;;;;;;2.40;80.32;96754.88;4899016;29;20049;-73
2020/12/19 05:06:21;;;;;;;10.52;7.47;;;;;;;2.38;80.08;96754.22;4899831;29;20039;-73
2020/12/19 05:08:48;;;;;;;12.15;7.93;;;;;;;2.34;80.24;96752.91;4900453;29;20044;-73
2020/12/19 05:11:15;;;;;;;13.27;7.40;;;;;;;2.32;80.34;96745.31;4899953;29;20056;-73
2020/12/19 05:13:43;;;;;;;15.27;8.65;;;;;;;2.31;80.31;96748.03;4882720;29;20051;-73
2020/12/19 05:16:14;;;;;;;14.32;8.07;;;;;;;2.28;80.40;96746.59;4899354;29;20048;-73
2020/12/19 05:18:41;;;;;;;12.75;7.82;;;;;;;2.26;80.31;96748.53;4899822;29;20056;-73
2020/12/19 05:21:09;;;;;;;13.55;8.95;;;;;;;2.25;80.27;96741.75;4899381;29;20040;-73
2020/12/19 05:23:37;;;;;;;11.10;8.02;;;;;;;2.23;80.26;96739.31;4898262;29;20047;-73
2020/12/19 05:26:05;;;;;;;12.10;8.25;;;;;;;2.20;80.32;96739.59;4899424;29;20056;-73
2020/12/19 05:28:37;;;;;;;12.68;8.40;;;;;;;2.18;80.21;96738.97;4899244;29;20053;-73
2020/12/19 05:31:04;;;;;;;10.80;8.05;;;;;;;2.16;80.16;96734.91;4899687;29;20040;-72
2020/12/19 05:33:42;;;;;;;12.25;8.15;;;;;;;2.16;80.44;96746.09;4899282;29;20478;-73
2020/12/19 05:36:21;;;;;;;13.15;8.32;;;;;;;2.16;80.39;96740.91;4899126;29;20044;-73
2020/12/19 05:38:48;;;;;;;14.13;8.93;;;;;;;2.15;80.30;96733.31;4898941;29;20041;-73
2020/12/19 05:41:14;;;;;;;12.90;8.25;;;;;;;2.12;80.34;96739.59;4899140;29;20071;-73
2020/12/19 05:43:50;;;;;;;13.00;8.80;;;;;;;2.09;80.33;96728.75;4899305;29;20051;-73
2020/12/19 05:46:45;;;;;;;13.73;9.13;;;;;;;2.06;81.53;96736.81;4898251;29;20073;-73
2020/12/19 05:49:12;;;;;;;11.77;8.52;;;;;;;2.01;80.35;96740.69;4894612;29;20052;-73
2020/12/19 05:51:41;;;;;;;14.98;9.30;;;;;;;1.98;80.43;96742.78;4898403;29;20053;-73
2020/12/19 05:54:15;;;;;;;13.90;9.23;;;;;;;1.98;80.47;96740.19;4899366;29;20378;-73
2020/12/19 05:56:42;;;;;;;12.73;8.55;;;;;;;1.97;80.35;96738.56;4899159;29;20045;-73
2020/12/19 05:59:13;;;;;;;14.38;9.30;;;;;;;1.96;80.53;96747.31;4898848;29;20045;-73
2020/12/19 06:01:42;;;;;;;13.32;8.52;;;;;;;1.97;80.41;96739.38;4898983;29;20481;-73
2020/12/19 06:04:09;;;;;;;11.38;8.05;;;;;;;1.97;80.44;96747.13;4899033;29;20049;-73
2020/12/19 06:06:40;;;;;;;15.43;8.80;;;;;;;1.98;80.56;96745.38;4898817;29;20397;-74
2020/12/19 06:09:08;;;;;;;14.25;8.93;;;;;;;1.97;80.39;96748.91;4900168;29;20051;-73
2020/12/19 06:11:59;;;;;;;16.45;8.88;;;;;;;1.95;80.31;96749.09;4898766;29;20052;-73
2020/12/19 06:14:30;;;;;;;12.65;9.23;;;;;;;1.94;80.39;96747.44;4899474;29;20047;-73
2020/12/19 06:17:07;;;;;;;13.77;8.85;;;;;;;1.93;80.28;96739.84;4898877;29;20084;-73
2020/12/19 06:19:35;;;;;;;13.48;8.88;;;;;;;1.92;80.37;96743.41;4899149;29;20405;-73
2020/12/19 06:22:01;;;;;;;14.52;8.15;;;;;;;1.90;80.12;96743.56;4898191;29;20052;-73
2020/12/19 06:24:47;;;;;;;12.80;8.27;;;;;;;1.91;80.03;96739.19;4881053;29;20099;-73
2020/12/19 06:27:22;;;;;;;16.77;10.05;;;;;;;1.89;80.43;96747.13;4898698;29;20047;-73
2020/12/19 06:29:50;;;;;;;15.02;9.38;;;;;;;1.89;80.49;96749.72;4898310;29;20040;-73
2020/12/19 06:32:24;;;;;;;16.52;9.85;;;;;;;1.90;80.29;96753.09;4898214;29;20040;-73
2020/12/19 06:35:04;;;;;;;14.68;8.85;;;;;;;1.88;80.20;96750.66;4898733;29;20044;-72
2020/12/19 06:37:32;;;;;;;15.98;9.68;;;;;;;1.85;80.31;96748.41;4898181;29;20033;-73
2020/12/19 06:40:10;;;;;;;13.48;9.55;;;;;;;1.85;80.25;96758.75;4898299;29;20053;-73
2020/12/19 06:42:36;;;;;;;15.65;9.55;;;;;;;1.81;80.21;96752.25;4897586;29;20041;-73
2020/12/19 06:45:23;;;;;;;12.52;9.13;;;;;;;1.79;80.09;96754.19;4881232;29;20047;-73
2020/12/19 06:47:50;;;;;;;18.08;8.98;;;;;;;1.76;79.85;96759.66;4898074;29;20049;-73
2020/12/19 06:50:17;;;;;;;14.68;9.75;;;;;;;1.75;79.93;96752.88;4897932;29;20436;-73
2020/12/19 06:52:59;;;;;;;14.50;8.93;;;;;;;1.74;80.09;96754.66;4897717;29;20056;-73
2020/12/19 06:55:29;;;;;;;15.75;9.25;;;;;;;1.71;79.96;96746.41;4908057;29;20059;-73
2020/12/19 06:57:56;;;;;;;11.95;9.10;;;;;;;1.71;80.12;96747.19;4897045;29;20048;-73
2020/12/19 07:00:30;;;;;;;21.45;12.20;;;;;;;1.71;80.27;96746.41;4897944;29;20358;-73
2020/12/19 07:03:04;;;;;;;17.50;10.70;;;;;;;1.71;80.49;96747.19;4898606;29;20052;-73
2020/12/19 07:05:34;;;;;;;18.15;12.38;;;;;;;1.72;80.47;96748.00;4898201;29;20044;-73
2020/12/19 07:08:18;;;;;;;19.45;12.65;;;;;;;1.76;81.01;96754.47;4898108;29;20036;-73
2020/12/19 07:10:45;;;;;;;20.93;13.03;;;;;;;1.75;80.75;96764.03;4888186;29;20041;-73
2020/12/19 07:13:12;;;;;;;20.30;12.43;;;;;;;1.79;80.73;96764.53;4898211;29;20281;-73
2020/12/19 07:15:44;;;;;;;15.20;10.70;;;;;;;1.79;80.64;96767.13;4897305;29;20040;-73
2020/12/19 07:18:42;;;;;;;15.75;11.15;;;;;;;1.77;80.33;96758.72;4897964;29;20045;-73
2020/12/19 07:21:10;;;;;;;17.70;10.77;;;;;;;1.73;80.09;96760.78;4876231;29;20048;-73
2020/12/19 07:23:39;;;;;;;14.82;10.45;;;;;;;1.72;79.90;96760.94;4897771;29;20040;-73
2020/12/19 07:26:06;;;;;;;18.05;10.45;;;;;;;1.70;79.97;96768.03;4897274;29;20477;-73
2020/12/19 07:28:33;;;;;;;18.17;11.25;;;;;;;1.70;80.20;96771.44;4897300;29;20057;-73
2020/12/19 07:31:00;;;;;;;20.92;12.13;;;;;;;1.71;80.09;96774.84;4897652;29;20413;-73
2020/12/19 07:33:26;;;;;;;21.83;11.95;;;;;;;1.70;80.12;96778.38;4911695;29;20056;-73
2020/12/19 07:35:56;;;;;;;16.73;11.75;;;;;;;1.70;80.19;96768.03;4897741;29;20032;-73
2020/12/19 07:38:22;;;;;;;16.60;11.57;;;;;;;1.68;80.12;96770.78;4897824;29;20047;-73
2020/12/19 07:40:56;;;;;;;13.98;10.32;;;;;;;1.68;80.09;96775.97;4897607;29;20052;-73
2020/12/19 07:43:23;;;;;;;17.08;11.43;;;;;;;1.70;79.98;96778.38;4897653;29;20045;-73
2020/12/19 07:45:56;;;;;;;17.17;10.95;;;;;;;1.73;80.41;96778.06;4897229;29;20092;-73
2020/12/19 07:48:22;;;;;;;14.45;11.32;;;;;;;1.76;80.42;96783.72;4897393;29;20040;-73
2020/12/19 07:50:48;;;;;;;15.45;10.70;;;;;;;1.80;80.48;96790.22;4895641;29;20052;-73
2020/12/19 07:53:14;;;;;;;16.90;11.13;;;;;;;1.86;80.47;96788.00;4898000;29;20383;-73
2020/12/19 07:55:49;;;;;;;18.63;11.80;;;;;;;1.99;80.82;96780.59;4897698;29;20060;-73
2020/12/19 07:58:16;;;;;;;20.65;13.20;;;;;;;2.18;80.94;96785.56;4897959;29;20059;-73
2020/12/19 08:00:43;;;;;;;23.60;15.93;;;;;;;2.45;80.78;96778.50;4896277;29;20473;-74
2020/12/19 08:03:11;;;;;;;21.95;13.52;;;;;;;2.72;80.50;96780.00;4887629;29;20056;-74
2020/12/19 08:05:37;;;;;;;24.23;15.10;;;;;;;2.99;80.16;96784.06;4896719;29;20041;-73
2020/12/19 08:08:03;;;;;;;20.02;13.40;;;;;;;3.26;79.94;96784.72;4897385;29;20085;-73
2020/12/19 08:10:30;;;;;;;20.15;11.82;;;;;;;3.52;79.49;96784.50;4898842;29;20068;-74
2020/12/19 08:12:56;;;;;;;15.55;11.00;;;;;;;3.77;79.32;96793.03;4884124;29;20453;-73
2020/12/19 08:15:23;;;;;;;18.67;11.95;;;;;;;4.02;78.69;96792.97;4899881;29;20043;-74
2020/12/19 08:17:51;;;;;;;18.40;12.98;;;;;;;4.26;78.44;96792.88;4900829;29;20051;-75
2020/12/19 08:20:29;;;;;;;17.60;11.75;;;;;;;4.52;77.89;96784.00;4883756;29;20036;-75
2020/12/19 08:22:59;;;;;;;19.75;13.43;;;;;;;4.77;77.64;96792.44;4900064;29;20509;-75
2020/12/19 08:25:25;;;;;;;17.15;11.98;;;;;;;4.94;77.37;96789.75;4900528;29;20112;-73
2020/12/19 08:27:51;;;;;;;17.98;12.77;;;;;;;5.09;76.93;96788.00;4899986;29;20058;-73
2020/12/19 08:30:19;;;;;;;15.25;11.93;;;;;;;5.21;76.73;96788.41;4900228;29;20048;-73
2020/12/19 08:32:59;;;;;;;17.33;12.02;;;;;;;5.33;75.82;96779.16;4900760;29;20040;-75
2020/12/19 08:35:37;;;;;;;15.82;11.55;;;;;;;5.45;75.72;96776.94;4900423;29;20047;-75
2020/12/19 08:38:08;;;;;;;18.85;11.85;;;;;;;5.57;75.84;96793.75;4900236;29;20041;-75
2020/12/19 08:40:35;;;;;;;16.02;11.13;;;;;;;5.66;75.93;96787.47;4899586;29;20044;-75
2020/12/19 08:43:03;;;;;;;15.25;11.20;;;;;;;5.72;75.73;96785.97;4900083;29;20071;-74
2020/12/19 08:45:33;;;;;;;16.15;11.18;;;;;;;5.79;74.74;96784.25;4907417;29;20071;-75
2020/12/19 08:48:23;;;;;;;13.93;10.05;;;;;;;5.85;74.16;96786.13;4910544;29;20420;-75
2020/12/19 08:50:51;;;;;;;15.60;9.60;;;;;;;5.88;74.97;96791.00;4902248;29;20488;-75
2020/12/19 08:53:25;;;;;;;15.05;10.82;;;;;;;5.88;73.09;96791.00;4889541;29;20044;-75
2020/12/19 08:55:54;;;;;;;14.52;10.02;;;;;;;5.90;74.73;96796.03;4900268;29;20399;-75
2020/12/19 08:58:26;;;;;;;13.70;9.32;;;;;;;5.99;74.48;96789.75;4883128;29;20057;-75
2020/12/19 09:00:57;;;;;;;16.50;10.80;;;;;;;6.11;74.14;96792.72;4899899;29;20084;-74
2020/12/19 09:03:34;;;;;;;15.55;10.25;;;;;;;6.24;73.37;96797.28;4900408;29;20398;-73
2020/12/19 09:06:09;;;;;;;15.98;10.50;;;;;;;6.37;72.91;96801.84;4900453;29;20037;-73
2020/12/19 09:08:44;;;;;;;15.38;10.30;;;;;;;6.48;73.54;96802.19;4898403;29;20048;-73
2020/12/19 09:11:27;;;;;;;13.68;10.20;;;;;;;6.60;71.97;96794.69;4897372;29;20029;-76
2020/12/19 09:14:08;;;;;;;14.80;10.02;;;;;;;6.73;72.43;96812.28;4900218;29;20048;-74
2020/12/19 09:16:35;;;;;;;17.23;11.20;;;;;;;6.82;73.68;96805.16;4899844;29;20056;-74
2020/12/19 09:19:12;;;;;;;14.43;10.43;;;;;;;6.97;72.09;96807.69;4900117;29;20145;-75
2020/12/19 09:21:38;;;;;;;15.10;11.23;;;;;;;7.13;73.62;96804.06;4898161;29;20044;-73
2020/12/19 09:24:04;;;;;;;15.57;10.57;;;;;;;7.30;73.43;96802.78;4899909;29;20373;-72
2020/12/19 09:26:30;;;;;;;16.52;10.10;;;;;;;7.49;73.06;96809.97;4899786;29;20497;-73
2020/12/19 09:28:57;;;;;;;12.15;10.20;;;;;;;7.68;72.74;96818.94;4899369;29;20047;-74
2020/12/19 09:31:26;;;;;;;15.52;10.90;;;;;;;7.77;71.99;96811.78;4895339;29;20056;-73
2020/12/19 09:33:52;;;;;;;14.40;10.18;;;;;;;7.71;71.07;96823.78;4899637;29;20033;-75
2020/12/19 09:36:18;;;;;;;14.00;10.27;;;;;;;7.73;71.62;96824.41;4882394;29;20047;-74
2020/12/19 09:38:44;;;;;;;13.20;10.30;;;;;;;7.79;71.05;96815.00;4897758;29;20056;-75
2020/12/19 09:41:10;;;;;;;16.55;11.48;;;;;;;7.74;70.65;96819.97;4899470;29;20045;-74
2020/12/19 09:43:36;;;;;;;21.27;12.07;;;;;;;7.66;70.40;96822.72;4882574;29;20037;-75
2020/12/19 09:46:03;;;;;;;16.20;10.88;;;;;;;7.59;70.12;96817.47;4881880;29;20358;-75
2020/12/19 09:48:29;;;;;;;15.93;10.13;;;;;;;7.54;70.20;96809.41;4898441;29;20048;-75
2020/12/19 09:50:55;;;;;;;16.55;10.40;;;;;;;7.51;70.27;96815.78;4872930;29;20051;-74
2020/12/19 09:53:21;;;;;;;14.48;9.80;;;;;;;7.54;69.91;96814.63;4869250;29;20032;-74
2020/12/19 09:55:47;;;;;;;15.32;9.35;;;;;;;7.61;70.02;96809.47;4902703;29;20057;-74
2020/12/19 09:58:15;;;;;;;15.60;9.88;;;;;;;7.78;70.15;96813.38;4898149;29;20048;-74
2020/12/19 10:00:41;;;;;;;13.90;9.70;;;;;;;7.95;69.89;96807.88;4897344;29;20049;-74
2020/12/19 10:03:07;;;;;;;16.02;9.88;;;;;;;8.16;69.63;96793.91;4913019;29;20045;-74
2020/12/19 10:05:36;;;;;;;17.58;10.90;;;;;;;8.36;69.12;96804.44;4897945;29;20053;-73
2020/12/19 10:08:03;;;;;;;12.88;8.40;;;;;;;8.54;68.51;96800.31;4899074;29;20043;-74
2020/12/19 10:10:30;;;;;;;12.25;8.93;;;;;;;8.64;68.13;96794.72;4887516;29;20033;-75
2020/12/19 10:12:56;;;;;;;12.38;9.00;;;;;;;8.83;67.87;96793.19;4898664;29;20043;-75
2020/12/19 10:15:23;;;;;;;10.60;7.88;;;;;;;9.04;67.50;96797.44;4913313;29;20430;-72
2020/12/19 10:17:49;;;;;;;10.38;6.80;;;;;;;9.14;66.44;96790.00;4899008;29;20469;-73
2020/12/19 10:20:16;;;;;;;12.23;8.55;;;;;;;9.21;66.02;96783.97;4898678;29;20470;-75
2020/12/19 10:22:42;;;;;;;11.10;8.32;;;;;;;9.38;66.21;96784.38;4898297;29;20489;-74
2020/12/19 10:25:08;;;;;;;12.77;8.45;;;;;;;9.57;65.90;96782.75;4897449;29;20033;-74
2020/12/19 10:27:34;;;;;;;10.55;8.10;;;;;;;9.72;65.39;96776.31;4899166;29;20059;-74
2020/12/19 10:30:00;;;;;;;11.52;8.40;;;;;;;9.83;64.75;96776.69;4898538;29;20088;-74
2020/12/19 10:32:27;;;;;;;12.05;8.68;;;;;;;9.90;64.81;96773.03;4897681;29;20044;-74
2020/12/19 10:34:53;;;;;;;12.65;7.63;;;;;;;10.02;64.50;96767.97;4898420;29;20496;-74
2020/12/19 10:37:19;;;;;;;10.20;7.70;;;;;;;10.07;63.80;96767.34;4898301;29;20481;-74
2020/12/19 10:39:46;;;;;;;11.88;7.80;;;;;;;10.12;63.67;96767.53;4897828;29;20486;-74
2020/12/19 10:42:12;;;;;;;10.70;6.90;;;;;;;10.06;62.98;96768.38;4898315;29;20033;-74
2020/12/19 10:44:38;;;;;;;7.05;6.30;;;;;;;10.04;62.68;96758.09;4898286;29;20048;-74
2020/12/19 10:47:05;;;;;;;9.45;6.07;;;;;;;10.00;62.81;96756.09;4898058;29;20421;-74
2020/12/19 10:49:31;;;;;;;7.68;5.93;;;;;;;9.81;62.38;96752.53;4898066;29;20055;-75
2020/12/19 10:51:57;;;;;;;6.25;5.30;;;;;;;9.62;62.35;96746.31;4898405;29;20040;-74
2020/12/19 10:54:23;;;;;;;6.57;4.93;;;;;;;9.45;62.62;96748.53;4912114;29;20056;-74
2020/12/19 10:56:53;;;;;;;11.02;5.55;;;;;;;9.33;62.39;96748.34;4879614;29;20060;-74
2020/12/19 10:59:19;;;;;;;16.63;13.55;;;;;;;9.14;62.39;96742.91;4897438;29;20044;-74
2020/12/19 11:01:46;;;;;;;51.90;27.42;;;;;;;8.93;62.57;96746.53;4897937;29;20047;-74
2020/12/19 11:04:13;;;;;;;18.83;12.63;;;;;;;8.80;62.73;96743.06;4898153;29;20060;-75
2020/12/19 11:06:39;;;;;;;81.45;53.45;;;;;;;8.68;62.74;96743.66;4896767;29;20040;-74
2020/12/19 11:09:05;;;;;;;51.28;35.03;;;;;;;8.65;63.19;96736.22;4898291;29;20405;-74
2020/12/19 11:11:31;;;;;;;44.58;28.27;;;;;;;8.78;63.28;96734.63;4898303;29;20466;-73
2020/12/19 11:13:58;;;;;;;23.02;15.65;;;;;;;8.87;63.14;96729.00;4897257;29;20052;-75
2020/12/19 11:16:26;;;;;;;14.73;9.80;;;;;;;8.92;62.89;96725.78;4898164;29;20036;-73
2020/12/19 11:18:53;;;;;;;18.65;9.32;;;;;;;8.99;63.02;96728.41;4897432;29;20061;-75
2020/12/19 11:21:20;;;;;;;7.80;6.30;;;;;;;9.02;63.15;96728.81;4881283;29;20037;-74
2020/12/19 11:23:47;;;;;;;9.63;7.13;;;;;;;9.01;62.60;96722.00;4903564;29;20036;-74
2020/12/19 11:26:18;;;;;;;10.65;7.47;;;;;;;8.94;62.20;96722.00;4897891;29;20047;-74
2020/12/19 11:28:47;;;;;;;8.35;6.38;;;;;;;8.96;62.57;96716.53;4903269;29;20470;-74
2020/12/19 11:31:15;;;;;;;25.67;11.93;;;;;;;9.05;62.84;96717.97;4897973;29;20399;-74
2020/12/19 11:33:42;;;;;;;10.10;6.60;;;;;;;9.31;62.65;96722.38;4898321;29;20397;-74
2020/12/19 11:36:08;;;;;;;33.53;20.05;;;;;;;9.48;61.96;96708.88;4897880;29;20037;-74